Time;durP1;ratioP1;P1;durP2;ratioP2;P2;SDS_P1;SDS_P2;PMS_P1;PMS_P2;Temp;Humidity;BMP_temperature;BMP_pressure;BME280_temperature;BME280_humidity;BME280_pressure;Samples;Min_cycle;Max_cycle;Signal;HPM_P1;HPM_P2
2021/12/10 00:01:38;;;;;;;;;;;;;;;10.16;88.07;99311.72;4975588;28;860;-57
2021/12/10 00:04:05;;;;;;;;;;;;;;;10.22;87.34;99312.06;4975740;28;1138;-58
2021/12/10 00:06:39;;;;;;;;;;;;;;;10.23;87.49;99313.63;4975635;28;894;-57
2021/12/10 00:09:13;;;;;;;;;;;;;;;10.25;87.35;99296.66;4975517;28;991;-57
2021/12/10 00:39:37;;;;;;;;;;;;;;;10.74;85.68;99298.00;5266315;23;1741;-56
2021/12/10 00:42:05;;;;;;;;;;;;;;;10.76;85.64;99292.06;4975077;28;875;-56
2021/12/10 00:44:31;;;;;;;;;;;;;;;10.77;85.14;99293.63;4975156;28;899;-56
2021/12/10 00:46:58;;;;;;;;;;;;;;;10.70;85.27;99294.50;4974984;28;1028;-56
2021/12/10 00:49:24;;;;;;;;;;;;;;;10.71;85.26;99289.75;4974869;28;812;-56
2021/12/10 00:51:51;;;;;;;;;;;;;;;10.56;85.49;99292.72;4974850;28;856;-56
2021/12/10 00:54:18;;;;;;;;;;;;;;;10.63;85.77;99289.09;4974720;28;1974;-56
2021/12/10 00:56:45;;;;;;;;;;;;;;;10.66;85.05;99282.72;4974740;28;840;-56
2021/12/10 00:59:12;;;;;;;;;;;;;;;10.62;85.16;99287.50;4974733;28;891;-56
2021/12/10 01:01:41;;;;;;;;;;;;;;;10.64;85.33;99285.13;4957336;28;1756;-56
2021/12/10 01:04:08;;;;;;;;;;;;;;;10.53;85.03;99285.25;4974580;28;856;-56
2021/12/10 01:06:36;;;;;;;;;;;;;;;10.38;85.46;99283.88;4974602;28;871;-56
2021/12/10 01:09:06;;;;;;;;;;;;;;;10.27;86.19;99275.69;4974505;28;808;-56
2021/12/10 01:11:34;;;;;;;;;;;;;;;10.19;86.44;99285.25;4974490;28;876;-56
2021/12/10 01:14:11;;;;;;;;;;;;;;;10.11;86.79;99272.72;4956969;28;1878;-56
2021/12/10 01:27:33;;;;;;;;;;;;;;;10.12;87.00;99274.31;4974171;28;693;-56
2021/12/10 01:30:16;;;;;;;;;;;;;;;10.10;87.10;99269.19;4974025;28;873;-56
2021/12/10 01:32:47;;;;;;;;;;;;;;;10.10;87.26;99274.72;4973949;28;1009;-56
2021/12/10 01:35:15;;;;;;;;;;;;;;;10.02;87.57;99262.94;4973993;28;1886;-56
2021/12/10 01:37:42;;;;;;;;;;;;;;;10.04;87.53;99259.78;4974067;28;1049;-57
2021/12/10 01:40:10;;;;;;;;;;;;;;;10.12;87.38;99247.47;4972799;28;1244;-56
2021/12/10 01:42:44;;;;;;;;;;;;;;;10.22;87.25;99251.31;4973821;28;861;-56
2021/12/10 01:45:19;;;;;;;;;;;;;;;10.35;87.07;99241.28;4973886;28;910;-56
2021/12/10 01:47:48;;;;;;;;;;;;;;;10.45;85.97;99236.81;4973665;28;885;-56
2021/12/10 01:50:15;;;;;;;;;;;;;;;10.55;85.46;99238.66;4973988;28;871;-56
2021/12/10 01:52:42;;;;;;;;;;;;;;;10.66;84.85;99235.72;4973662;28;904;-56
2021/12/10 01:55:10;;;;;;;;;;;;;;;10.79;84.47;99242.25;4973588;28;1906;-56
2021/12/10 01:57:39;;;;;;;;;;;;;;;10.79;84.17;99242.25;4973610;28;837;-56
2021/12/10 02:00:10;;;;;;;;;;;;;;;10.82;84.41;99235.91;4973432;28;904;-56
2021/12/10 02:02:40;;;;;;;;;;;;;;;10.95;83.83;99241.63;4973463;28;978;-56
2021/12/10 02:05:08;;;;;;;;;;;;;;;10.97;83.73;99236.47;4973443;28;923;-56
2021/12/10 02:07:35;;;;;;;;;;;;;;;10.93;83.44;99238.50;4973320;28;851;-56
2021/12/10 02:10:02;;;;;;;;;;;;;;;10.82;84.04;99237.88;4973280;28;938;-56
2021/12/10 02:12:29;;;;;;;;;;;;;;;10.69;85.00;99242.41;4973397;28;899;-56
2021/12/10 02:15:01;;;;;;;;;;;;;;;10.67;84.91;99222.69;4973198;28;1954;-56
2021/12/10 02:17:29;;;;;;;;;;;;;;;10.70;84.84;99228.19;4973454;28;916;-56
2021/12/10 02:19:56;;;;;;;;;;;;;;;10.76;84.57;99229.28;4973226;28;892;-56
2021/12/10 02:22:23;;;;;;;;;;;;;;;10.85;85.01;99230.75;4973353;28;872;-56
2021/12/10 02:24:50;;;;;;;;;;;;;;;10.87;84.99;99228.34;4973291;28;968;-56
2021/12/10 02:27:15;;;;;;;;;;;;;;;10.92;84.64;99227.84;4973239;28;875;-56
2021/12/10 02:29:42;;;;;;;;;;;;;;;10.93;84.99;99221.13;4973257;28;843;-57
2021/12/10 02:32:10;;;;;;;;;;;;;;;11.00;83.95;99215.47;4973403;28;905;-57
2021/12/10 02:34:38;;;;;;;;;;;;;;;11.35;82.30;99216.09;4973061;28;1944;-56
2021/12/10 02:37:06;;;;;;;;;;;;;;;11.60;82.03;99216.41;4972890;28;844;-56
2021/12/10 02:39:32;;;;;;;;;;;;;;;11.63;81.51;99212.81;4972875;28;1371;-57
2021/12/10 02:41:59;;;;;;;;;;;;;;;11.72;80.40;99217.78;4973141;28;807;-57
2021/12/10 02:44:27;;;;;;;;;;;;;;;11.81;80.84;99209.69;4973165;28;877;-56
2021/12/10 02:46:55;;;;;;;;;;;;;;;11.74;81.45;99209.84;4972954;28;891;-56
2021/12/10 02:49:21;;;;;;;;;;;;;;;11.68;81.60;99216.31;4972678;28;1693;-56
2021/12/10 02:51:49;;;;;;;;;;;;;;;11.65;81.37;99206.88;4972527;28;1151;-56
2021/12/10 02:54:21;;;;;;;;;;;;;;;11.61;82.11;99206.16;4955461;28;1910;-57
2021/12/10 02:56:48;;;;;;;;;;;;;;;11.52;82.81;99203.94;4972660;28;932;-57
2021/12/10 02:59:15;;;;;;;;;;;;;;;11.44;84.05;99197.75;4972737;28;886;-56
2021/12/10 03:01:46;;;;;;;;;;;;;;;11.50;82.51;99194.47;4972782;28;836;-57
2021/12/10 03:04:13;;;;;;;;;;;;;;;11.64;81.52;99183.16;4972684;28;915;-57
2021/12/10 03:06:44;;;;;;;;;;;;;;;11.68;80.42;99194.16;4972769;28;985;-56
2021/12/10 03:09:10;;;;;;;;;;;;;;;11.66;80.42;99186.28;4972679;28;808;-57
2021/12/10 03:11:37;;;;;;;;;;;;;;;11.51;80.65;99190.50;4972633;28;844;-56
2021/12/10 03:14:09;;;;;;;;;;;;;;;11.33;81.70;99182.53;4972522;28;1942;-56
2021/12/10 03:16:39;;;;;;;;;;;;;;;11.11;82.41;99188.44;4972734;28;884;-56
2021/12/10 03:19:06;;;;;;;;;;;;;;;10.96;83.49;99182.34;4972652;28;820;-57
2021/12/10 03:21:33;;;;;;;;;;;;;;;11.03;83.36;99190.56;4972606;28;844;-57
2021/12/10 03:23:59;;;;;;;;;;;;;;;11.05;83.94;99187.34;4972673;28;883;-56
2021/12/10 03:26:26;;;;;;;;;;;;;;;11.07;83.73;99178.63;4972576;28;867;-56
2021/12/10 03:28:53;;;;;;;;;;;;;;;11.21;83.58;99170.88;4972453;28;844;-56
2021/12/10 03:31:21;;;;;;;;;;;;;;;11.40;82.63;99174.09;4972505;28;852;-56
2021/12/10 03:33:48;;;;;;;;;;;;;;;11.49;83.39;99173.56;4972328;28;1882;-56
2021/12/10 03:36:15;;;;;;;;;;;;;;;11.50;83.38;99177.88;4972517;28;839;-56
2021/12/10 03:38:42;;;;;;;;;;;;;;;11.49;84.25;99176.31;4972260;28;1200;-57
2021/12/10 03:41:10;;;;;;;;;;;;;;;11.47;84.53;99179.50;4972463;28;899;-57
2021/12/10 03:43:37;;;;;;;;;;;;;;;11.44;83.35;99164.53;4972236;28;872;-57
2021/12/10 03:46:05;;;;;;;;;;;;;;;11.45;83.02;99174.38;4972307;28;849;-57
2021/12/10 03:48:33;;;;;;;;;;;;;;;11.48;82.91;99175.53;4972235;28;891;-56
2021/12/10 03:51:02;;;;;;;;;;;;;;;11.54;82.81;99173.03;4972346;28;801;-57
2021/12/10 03:53:29;;;;;;;;;;;;;;;11.63;82.22;99187.13;4972251;28;1906;-57
2021/12/10 03:56:05;;;;;;;;;;;;;;;11.68;82.29;99177.53;4972501;28;910;-57
2021/12/10 03:58:32;;;;;;;;;;;;;;;11.63;81.15;99168.53;4955070;28;892;-56
2021/12/10 04:00:58;;;;;;;;;;;;;;;11.54;81.39;99175.81;4972169;28;820;-56
2021/12/10 04:03:26;;;;;;;;;;;;;;;11.41;81.39;99175.66;4973290;28;840;-56
2021/12/10 04:05:54;;;;;;;;;;;;;;;11.29;81.91;99171.53;4975456;28;864;-57
2021/12/10 04:08:21;;;;;;;;;;;;;;;11.27;81.36;99175.94;4975695;28;820;-56
2021/12/10 04:10:48;;;;;;;;;;;;;;;11.33;80.89;99186.09;4958359;28;859;-56
2021/12/10 04:13:15;;;;;;;;;;;;;;;12.00;79.14;99190.78;4975441;28;1874;-56
2021/12/10 04:15:42;;;;;;;;;;;;;;;12.33;77.17;99172.28;4958180;28;882;-56
2021/12/10 04:18:09;;;;;;;;;;;;;;;12.46;76.27;99189.78;4975479;28;910;-56
2021/12/10 04:20:36;;;;;;;;;;;;;;;12.53;75.82;99190.84;4975372;28;1064;-57
2021/12/10 04:23:04;;;;;;;;;;;;;;;12.53;76.02;99182.53;4975390;28;820;-56
2021/12/10 04:25:32;;;;;;;;;;;;;;;12.51;75.72;99190.50;4957940;28;2049;-56
2021/12/10 04:28:00;;;;;;;;;;;;;;;12.57;75.40;99183.22;4975605;28;859;-56
2021/12/10 04:30:29;;;;;;;;;;;;;;;12.49;75.57;99188.16;4975541;28;831;-57
2021/12/10 04:32:55;;;;;;;;;;;;;;;12.51;75.29;99188.50;4975142;28;869;-56
2021/12/10 04:35:22;;;;;;;;;;;;;;;12.41;75.63;99176.41;4975135;28;1894;-57
2021/12/10 04:37:51;;;;;;;;;;;;;;;12.34;75.98;99184.91;4975255;28;1028;-56
2021/12/10 04:40:21;;;;;;;;;;;;;;;12.28;76.63;99181.06;4974833;28;1446;-57
2021/12/10 04:42:46;;;;;;;;;;;;;;;12.33;76.44;99190.88;4975206;28;828;-56
2021/12/10 04:45:16;;;;;;;;;;;;;;;12.32;76.34;99194.88;4974859;28;952;-56
2021/12/10 04:47:43;;;;;;;;;;;;;;;12.33;76.09;99190.88;4974795;28;937;-56
2021/12/10 04:50:10;;;;;;;;;;;;;;;12.23;76.57;99198.22;4974935;28;882;-56
2021/12/10 04:52:37;;;;;;;;;;;;;;;12.10;77.41;99195.31;4957490;28;1177;-57
2021/12/10 04:55:05;;;;;;;;;;;;;;;11.91;77.71;99183.03;4974664;28;1910;-56
2021/12/10 04:57:31;;;;;;;;;;;;;;;11.87;78.24;99187.06;4975069;28;887;-56
2021/12/10 04:59:59;;;;;;;;;;;;;;;11.75;79.11;99182.94;4974666;28;784;-57
2021/12/10 05:02:26;;;;;;;;;;;;;;;11.73;79.68;99177.03;4974922;28;915;-57
2021/12/10 05:04:57;;;;;;;;;;;;;;;11.70;80.16;99180.66;4974551;28;859;-56
2021/12/10 05:07:24;;;;;;;;;;;;;;;11.71;79.18;99171.16;4974506;28;880;-56
2021/12/10 05:09:50;;;;;;;;;;;;;;;11.77;79.14;99174.97;4974647;28;871;-56
2021/12/10 05:12:17;;;;;;;;;;;;;;;11.70;79.24;99166.84;4957030;28;884;-56
2021/12/10 05:14:44;;;;;;;;;;;;;;;11.49;79.75;99162.47;4974194;28;1886;-56
2021/12/10 05:17:11;;;;;;;;;;;;;;;11.21;81.30;99161.81;4974473;28;792;-56
2021/12/10 05:19:39;;;;;;;;;;;;;;;11.06;81.59;99166.03;4974275;28;977;-56
2021/12/10 05:22:07;;;;;;;;;;;;;;;11.06;82.12;99161.25;4974190;28;950;-57
2021/12/10 05:24:34;;;;;;;;;;;;;;;11.07;82.50;99162.03;4974286;28;812;-56
2021/12/10 05:27:01;;;;;;;;;;;;;;;11.02;82.84;99160.53;4974143;28;875;-56
2021/12/10 05:29:28;;;;;;;;;;;;;;;10.96;83.57;99151.16;4974502;28;892;-56
2021/12/10 05:31:56;;;;;;;;;;;;;;;10.94;84.06;99159.88;4974250;28;894;-57
2021/12/10 05:34:23;;;;;;;;;;;;;;;10.89;84.50;99154.06;4956704;28;1886;-56
2021/12/10 05:36:50;;;;;;;;;;;;;;;10.79;84.78;99164.84;4974032;28;820;-56
2021/12/10 05:39:21;;;;;;;;;;;;;;;10.71;85.03;99162.63;4973830;28;1214;-56
2021/12/10 05:41:48;;;;;;;;;;;;;;;10.67;85.47;99154.41;4974078;28;891;-56
2021/12/10 05:44:15;;;;;;;;;;;;;;;10.68;85.47;99164.25;4974146;28;879;-56
2021/12/10 05:46:42;;;;;;;;;;;;;;;10.67;85.63;99156.38;4973799;28;843;-56
2021/12/10 05:49:08;;;;;;;;;;;;;;;10.77;83.96;99164.47;4973736;28;817;-56
2021/12/10 05:51:36;;;;;;;;;;;;;;;10.99;82.30;99166.94;4973698;28;850;-56
2021/12/10 05:54:02;;;;;;;;;;;;;;;11.04;82.34;99158.91;4973642;28;1883;-57
2021/12/10 05:56:30;;;;;;;;;;;;;;;11.11;81.96;99157.22;4973730;28;887;-57
2021/12/10 05:58:57;;;;;;;;;;;;;;;11.20;81.69;99158.25;4973517;28;824;-57
2021/12/10 06:01:24;;;;;;;;;;;;;;;11.29;81.18;99156.91;4973531;28;856;-56
2021/12/10 06:03:52;;;;;;;;;;;;;;;11.31;81.25;99158.06;4973556;28;820;-57
2021/12/10 06:06:21;;;;;;;;;;;;;;;11.23;82.09;99153.88;4973419;28;919;-57
2021/12/10 06:08:48;;;;;;;;;;;;;;;11.15;83.03;99161.50;4973707;28;848;-56
2021/12/10 06:11:14;;;;;;;;;;;;;;;11.23;81.31;99154.63;4973619;28;895;-56
2021/12/10 06:13:41;;;;;;;;;;;;;;;11.52;79.82;99158.84;4973620;28;1977;-56
2021/12/10 06:16:07;;;;;;;;;;;;;;;11.62;79.63;99164.19;4973601;28;900;-56
2021/12/10 06:18:34;;;;;;;;;;;;;;;11.79;79.31;99178.09;4973229;28;907;-56
2021/12/10 06:21:01;;;;;;;;;;;;;;;11.82;78.91;99177.25;4973451;28;875;-57
2021/12/10 06:23:27;;;;;;;;;;;;;;;12.11;77.93;99179.47;4955879;28;1661;-56
2021/12/10 06:25:54;;;;;;;;;;;;;;;12.38;76.43;99174.53;4972606;28;835;-57
2021/12/10 06:28:21;;;;;;;;;;;;;;;12.57;74.86;99174.91;4973283;28;808;-56
2021/12/10 06:30:49;;;;;;;;;;;;;;;12.72;74.31;99181.69;4973108;28;855;-56
2021/12/10 06:33:17;;;;;;;;;;;;;;;12.81;73.74;99181.06;4972836;28;934;-57
2021/12/10 06:35:45;;;;;;;;;;;;;;;12.84;73.74;99171.88;4973318;28;1954;-56
2021/12/10 06:38:12;;;;;;;;;;;;;;;12.87;72.91;99165.47;4973247;28;958;-56
2021/12/10 06:40:40;;;;;;;;;;;;;;;12.93;72.65;99174.03;4973078;28;1339;-56
2021/12/10 06:43:07;;;;;;;;;;;;;;;12.95;72.76;99172.41;4955945;28;832;-56
2021/12/10 06:45:35;;;;;;;;;;;;;;;13.03;71.37;99157.13;4973100;28;817;-56
2021/12/10 06:48:03;;;;;;;;;;;;;;;13.16;70.78;99165.53;4972849;28;909;-56
2021/12/10 06:50:32;;;;;;;;;;;;;;;13.16;71.18;99159.19;4972831;28;849;-57
2021/12/10 06:52:59;;;;;;;;;;;;;;;13.15;70.63;99154.88;4972819;28;840;-57
2021/12/10 06:55:27;;;;;;;;;;;;;;;13.17;70.68;99152.47;4972745;28;1965;-57
2021/12/10 06:57:53;;;;;;;;;;;;;;;13.22;69.93;99147.13;4955547;28;1068;-57
2021/12/10 07:00:30;;;;;;;;;;;;;;;13.25;69.94;99153.84;4972740;28;915;-57
2021/12/10 07:02:56;;;;;;;;;;;;;;;13.27;70.08;99166.06;4972687;28;808;-57
2021/12/10 07:05:23;;;;;;;;;;;;;;;13.33;69.16;99168.31;4972646;28;816;-56
2021/12/10 07:07:50;;;;;;;;;;;;;;;13.40;68.68;99152.25;4972673;28;893;-57
2021/12/10 07:10:18;;;;;;;;;;;;;;;13.50;68.70;99155.94;4972631;28;882;-57
2021/12/10 07:12:45;;;;;;;;;;;;;;;13.53;67.72;99149.53;4972609;28;1236;-57
2021/12/10 07:15:14;;;;;;;;;;;;;;;13.55;67.80;99160.19;4972805;28;1953;-57
2021/12/10 07:17:41;;;;;;;;;;;;;;;13.51;67.63;99154.75;4972567;28;847;-57
2021/12/10 07:20:08;;;;;;;;;;;;;;;13.53;67.61;99165.41;4972573;28;895;-57
2021/12/10 07:22:35;;;;;;;;;;;;;;;13.51;66.99;99162.31;4972543;28;848;-56
2021/12/10 07:25:03;;;;;;;;;;;;;;;13.54;66.30;99164.97;4972432;28;852;-57
2021/12/10 07:27:30;;;;;;;;;;;;;;;13.64;66.48;99171.47;4972377;28;948;-56
2021/12/10 07:29:57;;;;;;;;;;;;;;;13.61;66.57;99181.44;4972470;28;785;-57
2021/12/10 07:32:23;;;;;;;;;;;;;;;13.55;66.84;99174.88;4972333;28;900;-57
2021/12/10 07:34:51;;;;;;;;;;;;;;;13.58;66.29;99168.44;4972350;28;1879;-57
2021/12/10 07:37:18;;;;;;;;;;;;;;;13.66;66.51;99192.00;4972426;28;836;-57
2021/12/10 07:39:43;;;;;;;;;;;;;;;13.74;66.29;99183.47;4975447;28;1363;-57
2021/12/10 07:42:10;;;;;;;;;;;;;;;13.73;66.44;99179.16;4976132;28;839;-57
2021/12/10 07:44:37;;;;;;;;;;;;;;;13.70;66.98;99180.81;4976071;28;844;-57
2021/12/10 07:47:05;;;;;;;;;;;;;;;13.65;67.25;99184.09;4976291;28;837;-57
2021/12/10 07:49:32;;;;;;;;;;;;;;;13.59;67.42;99192.22;4976080;28;804;-56
2021/12/10 07:52:00;;;;;;;;;;;;;;;13.45;68.32;99187.03;4975861;28;912;-57
2021/12/10 07:54:26;;;;;;;;;;;;;;;13.33;68.08;99182.19;4975746;28;1915;-56
2021/12/10 07:56:53;;;;;;;;;;;;;;;13.39;68.64;99183.22;4975932;28;831;-57
2021/12/10 07:59:20;;;;;;;;;;;;;;;13.55;68.38;99180.41;4975737;28;941;-57
2021/12/10 08:01:46;;;;;;;;;;;;;;;13.78;67.49;99175.81;4975720;28;971;-57
2021/12/10 08:04:13;;;;;;;;;;;;;;;14.08;66.80;99167.03;4975640;28;849;-57
2021/12/10 08:06:40;;;;;;;;;;;;;;;14.48;65.50;99152.69;4975714;28;804;-57
2021/12/10 08:09:08;;;;;;;;;;;;;;;14.55;65.09;99162.03;4975637;28;907;-57
2021/12/10 08:11:35;;;;;;;;;;;;;;;14.38;64.75;99164.16;4975649;28;819;-57
2021/12/10 08:14:02;;;;;;;;;;;;;;;14.32;64.99;99163.94;4975465;28;1882;-57
2021/12/10 08:16:30;;;;;;;;;;;;;;;14.30;64.71;99158.03;4975438;28;911;-56
2021/12/10 08:18:57;;;;;;;;;;;;;;;14.41;64.95;99155.72;4975376;28;969;-57
2021/12/10 08:21:24;;;;;;;;;;;;;;;14.52;63.94;99163.72;4975415;28;796;-57
2021/12/10 08:23:53;;;;;;;;;;;;;;;14.60;64.18;99150.41;4975359;28;850;-57
2021/12/10 08:26:20;;;;;;;;;;;;;;;14.62;64.25;99165.41;4975953;28;796;-57
2021/12/10 08:28:47;;;;;;;;;;;;;;;14.78;63.91;99153.38;4975684;28;862;-57
2021/12/10 08:31:15;;;;;;;;;;;;;;;14.82;64.10;99144.94;4975466;28;1009;-57
2021/12/10 08:33:46;;;;;;;;;;;;;;;14.97;62.06;99153.59;4975225;28;1953;-57
2021/12/10 08:36:13;;;;;;;;;;;;;;;15.20;62.13;99155.97;4975119;28;970;-57
2021/12/10 08:38:41;;;;;;;;;;;;;;;15.77;60.53;99150.44;4974971;28;1218;-57
2021/12/10 08:41:09;;;;;;;;;;;;;;;15.96;59.32;99151.34;4957739;28;1798;-57
2021/12/10 08:43:37;;;;;;;;;;;;;;;15.98;58.05;99143.31;4974969;28;875;-57
2021/12/10 08:46:04;;;;;;;;;;;;;;;15.97;58.69;99161.25;4975236;28;903;-57
2021/12/10 08:48:31;;;;;;;;;;;;;;;16.06;56.61;99155.72;4974472;28;1167;-57
2021/12/10 08:50:59;;;;;;;;;;;;;;;16.03;57.18;99139.13;4974841;28;903;-57
2021/12/10 08:53:26;;;;;;;;;;;;;;;16.31;57.26;99128.91;4974707;28;1914;-57
2021/12/10 08:55:54;;;;;;;;;;;;;;;16.56;57.25;99118.75;4974870;28;820;-57
2021/12/10 08:58:22;;;;;;;;;;;;;;;16.66;56.14;99135.09;4974714;28;878;-57
2021/12/10 09:00:50;;;;;;;;;;;;;;;16.77;54.22;99097.56;4974616;28;852;-57
2021/12/10 09:03:17;;;;;;;;;;;;;;;16.86;54.82;99122.75;4974633;28;910;-57
2021/12/10 09:05:44;;;;;;;;;;;;;;;16.93;54.92;99120.44;4974669;28;824;-57
2021/12/10 09:08:11;;;;;;;;;;;;;;;16.87;54.09;99124.28;4974595;28;855;-57
2021/12/10 09:10:39;;;;;;;;;;;;;;;16.88;53.34;99107.09;4974473;28;852;-57
2021/12/10 09:13:10;;;;;;;;;;;;;;;16.79;55.57;99093.09;4974494;28;816;-57
2021/12/10 09:15:37;;;;;;;;;;;;;;;16.81;54.65;99084.28;4974314;28;1886;-57
2021/12/10 09:18:05;;;;;;;;;;;;;;;16.90;54.71;99098.25;4957163;28;879;-57
2021/12/10 09:20:36;;;;;;;;;;;;;;;17.07;53.41;99074.41;4974391;28;867;-57
2021/12/10 09:23:03;;;;;;;;;;;;;;;17.02;53.94;99082.59;4974616;28;840;-57
2021/12/10 09:25:30;;;;;;;;;;;;;;;16.97;52.06;99070.03;4974461;28;877;-57
2021/12/10 09:27:57;;;;;;;;;;;;;;;17.10;52.56;99086.66;4974505;28;828;-57
2021/12/10 09:30:26;;;;;;;;;;;;;;;17.13;52.50;99071.75;4974201;28;936;-57
2021/12/10 09:32:52;;;;;;;;;;;;;;;17.04;51.90;99066.94;4974339;28;832;-57
2021/12/10 09:35:20;;;;;;;;;;;;;;;17.13;52.84;99077.31;4974212;28;1957;-57
2021/12/10 09:37:47;;;;;;;;;;;;;;;17.20;51.30;99054.69;4974087;28;1080;-57
2021/12/10 09:40:17;;;;;;;;;;;;;;;17.31;51.79;99055.00;4973746;28;1292;-57
2021/12/10 09:42:44;;;;;;;;;;;;;;;17.28;52.61;99050.34;4973970;28;809;-57
2021/12/10 09:45:11;;;;;;;;;;;;;;;17.38;52.11;99053.91;4974141;28;860;-57
2021/12/10 09:47:40;;;;;;;;;;;;;;;17.11;51.31;99049.91;4973791;28;861;-57
2021/12/10 09:50:07;;;;;;;;;;;;;;;16.72;53.86;99045.94;4973858;28;856;-57
2021/12/10 09:52:34;;;;;;;;;;;;;;;16.45;52.20;99041.88;4973743;28;868;-56
2021/12/10 09:55:00;;;;;;;;;;;;;;;16.25;53.43;99056.22;4973574;28;1971;-56
2021/12/10 09:57:31;;;;;;;;;;;;;;;16.15;53.11;99048.28;4973630;28;892;-56
2021/12/10 10:00:00;;;;;;;;;;;;;;;16.16;53.84;99053.41;4973349;28;992;-56
2021/12/10 10:02:26;;;;;;;;;;;;;;;16.16;53.50;99049.84;4972911;28;801;-56
2021/12/10 10:04:54;;;;;;;;;;;;;;;16.23;53.05;99030.81;4973584;28;800;-56
2021/12/10 10:07:25;;;;;;;;;;;;;;;16.32;52.52;99036.44;4973448;28;882;-56
2021/12/10 10:09:56;;;;;;;;;;;;;;;16.28;52.47;99046.16;4973322;28;1198;-56
2021/12/10 10:12:25;;;;;;;;;;;;;;;16.29;52.17;98989.94;4973547;28;820;-62
2021/12/10 10:14:50;;;;;;;;;;;;;;;16.50;52.65;99021.75;4973624;28;1930;-58
2021/12/10 10:17:17;;;;;;;;;;;;;;;16.70;51.25;99031.69;4973566;28;1254;-51
2021/12/10 10:19:44;;;;;;;;;;;;;;;16.94;52.02;99018.72;4973417;28;1278;-55
2021/12/10 10:22:13;;;;;;;;;;;;;;;17.52;50.68;99014.16;4973582;28;878;-58
2021/12/10 10:24:54;;;;;;;;;;;;;;;18.02;49.68;99036.22;5110248;27;1415;-56
2021/12/10 10:27:23;;;;;;;;;;;;;;;18.28;49.68;99022.56;5109476;28;916;-54
2021/12/10 10:29:53;;;;;;;;;;;;;;;18.25;49.71;99036.75;5109210;28;862;-54
2021/12/10 10:32:22;;;;;;;;;;;;;;;17.70;50.20;99040.50;5109896;28;825;-62
2021/12/10 10:34:52;;;;;;;;;;;;;;;17.31;50.26;99049.41;5109397;28;834;-61
2021/12/10 10:37:20;;;;;;;;;;;;;;;17.45;50.27;99050.00;5109413;28;838;-62
2021/12/10 10:39:48;;;;;;;;;;;;;;;17.42;49.98;99023.78;5109182;28;854;-61
2021/12/10 10:42:16;;;;;;;;;;;;;;;17.38;49.93;99033.56;5107943;28;1392;-61
2021/12/10 10:44:44;;;;;;;;;;;;;;;17.18;50.90;99014.53;5108966;28;1897;-61
2021/12/10 10:47:11;;;;;;;;;;;;;;;16.87;51.66;99019.00;5109045;28;908;-61
2021/12/10 10:49:45;;;;;;;;;;;;;;;16.85;52.00;99024.28;5108959;28;842;-62
2021/12/10 10:52:18;;;;;;;;;;;;;;;16.82;50.84;99010.50;5109048;28;822;-61
2021/12/10 10:54:46;;;;;;;;;;;;;;;16.92;51.93;99010.03;5109247;28;822;-61
2021/12/10 10:57:14;;;;;;;;;;;;;;;16.96;51.34;99011.88;5109127;28;837;-61
2021/12/10 10:59:41;;;;;;;;;;;;;;;17.02;51.44;99013.59;5108812;28;861;-61
2021/12/10 11:02:10;;;;;;;;;;;;;;;17.13;51.07;99018.69;5108679;28;925;-61
2021/12/10 11:04:45;;;;;;;;;;;;;;;17.15;51.05;99007.84;5108708;28;1948;-61
2021/12/10 11:07:14;;;;;;;;;;;;;;;17.12;50.12;98980.88;5108610;28;865;-59
2021/12/10 11:10:04;;;;;;;;;;;;;;;17.07;50.63;98976.69;5108632;28;893;-58
2021/12/10 11:12:40;;;;;;;;;;;;;;;16.96;50.15;98992.34;5105642;28;1439;-59
2021/12/10 11:15:09;;;;;;;;;;;;;;;16.86;50.54;98983.97;5107273;28;862;-58
2021/12/10 11:17:39;;;;;;;;;;;;;;;16.78;52.03;98999.44;5108437;28;849;-59
2021/12/10 11:20:09;;;;;;;;;;;;;;;16.67;52.47;98999.91;5108438;28;810;-59
2021/12/10 11:22:44;;;;;;;;;;;;;;;16.57;52.66;98992.78;5107943;28;1885;-60
2021/12/10 11:25:13;;;;;;;;;;;;;;;16.40;53.22;98997.84;5108817;28;778;-59
2021/12/10 11:27:41;;;;;;;;;;;;;;;16.34;52.83;99013.63;5107188;28;905;-59
2021/12/10 11:30:13;;;;;;;;;;;;;;;16.31;54.29;98990.25;5108254;28;893;-59
2021/12/10 11:32:41;;;;;;;;;;;;;;;16.40;53.71;98995.06;5108300;28;852;-59
2021/12/10 11:35:16;;;;;;;;;;;;;;;16.47;53.56;98975.25;5099695;28;1320;-59
2021/12/10 11:37:43;;;;;;;;;;;;;;;16.62;53.17;98974.63;5094433;28;858;-59
2021/12/10 11:40:34;;;;;;;;;;;;;;;16.78;53.76;98982.72;5094428;28;932;-59
2021/12/10 11:43:05;;;;;;;;;;;;;;;17.14;53.39;98962.41;5083641;28;1905;-59
2021/12/10 11:45:44;;;;;;;;;;;;;;;17.66;52.93;98962.41;5094467;28;790;-59
2021/12/10 11:48:18;;;;;;;;;;;;;;;17.74;51.41;98965.66;5094524;28;861;-59
2021/12/10 11:50:57;;;;;;;;;;;;;;;17.40;51.63;98964.06;5094563;28;873;-59
2021/12/10 11:53:23;;;;;;;;;;;;;;;17.12;54.36;98966.91;5094611;28;853;-59
2021/12/10 11:56:13;;;;;;;;;;;;;;;16.96;52.43;98959.63;5094181;28;810;-58
2021/12/10 11:58:40;;;;;;;;;;;;;;;16.80;54.67;98948.78;5091109;28;1660;-58
2021/12/10 12:01:14;;;;;;;;;;;;;;;16.51;56.18;98970.31;5094032;28;897;-58
2021/12/10 12:03:40;;;;;;;;;;;;;;;16.25;57.31;98946.72;5094560;28;1932;-58
2021/12/10 12:06:08;;;;;;;;;;;;;;;16.12;57.69;98942.03;5093959;28;947;-58
2021/12/10 12:08:37;;;;;;;;;;;;;;;15.99;58.73;98930.25;5093941;28;1347;-58
2021/12/10 12:11:06;;;;;;;;;;;;;;;15.91;58.87;98920.63;5094141;28;809;-58
2021/12/10 12:13:40;;;;;;;;;;;;;;;15.79;59.89;98932.66;5093708;28;1235;-59
2021/12/10 12:16:13;;;;;;;;;;;;;;;15.63;59.28;98933.66;5093803;28;854;-58
2021/12/10 12:18:42;;;;;;;;;;;;;;;15.56;59.78;98943.06;5093659;28;924;-58
2021/12/10 12:27:12;;;;;;;;;;;;;;;15.41;60.60;98919.81;5093857;28;660;-58
2021/12/10 12:29:52;;;;;;;;;;;;;;;15.35;60.76;98905.69;5093643;28;794;-58
2021/12/10 12:32:21;;;;;;;;;;;;;;;15.28;61.24;98897.63;5093660;28;901;-58
2021/12/10 12:34:48;;;;;;;;;;;;;;;15.16;61.99;98904.81;5093374;28;953;-58
2021/12/10 12:37:17;;;;;;;;;;;;;;;14.93;64.40;98927.56;5093387;28;533;-58
2021/12/10 12:39:49;;;;;;;;;;;;;;;14.40;68.84;98930.97;5093490;28;1255;-58
2021/12/10 12:42:18;;;;;;;;;;;;;;;13.73;71.78;98941.09;5093333;28;893;-59
2021/12/10 12:44:46;;;;;;;;;;;;;;;13.31;73.54;98960.59;5093116;28;1889;-59
2021/12/10 12:47:13;;;;;;;;;;;;;;;12.75;76.65;98958.97;5092340;28;814;-58
2021/12/10 12:49:49;;;;;;;;;;;;;;;12.24;79.22;98986.44;5093316;28;873;-55
2021/12/10 12:52:18;;;;;;;;;;;;;;;11.82;82.21;99002.81;5093058;28;885;-56
2021/12/10 12:55:05;;;;;;;;;;;;;;;11.64;83.66;99001.22;5093018;28;822;-57
2021/12/10 12:57:50;;;;;;;;;;;;;;;11.55;85.37;98994.75;5088846;28;1372;-57
2021/12/10 13:00:25;;;;;;;;;;;;;;;11.46;85.41;99003.63;5092884;28;853;-61
2021/12/10 13:02:54;;;;;;;;;;;;;;;11.37;86.42;98990.38;5093150;28;1893;-61
2021/12/10 13:05:29;;;;;;;;;;;;;;;11.35;86.49;98997.50;5092847;28;791;-60
2021/12/10 13:08:07;;;;;;;;;;;;;;;11.34;86.52;98999.50;5092811;28;873;-59
2021/12/10 13:10:37;;;;;;;;;;;;;;;11.35;86.63;99003.84;5092878;28;927;-59
2021/12/10 13:13:17;;;;;;;;;;;;;;;11.34;86.56;98966.31;5092689;28;873;-59
2021/12/10 13:15:50;;;;;;;;;;;;;;;11.33;86.61;98958.44;5092598;28;905;-59
2021/12/10 13:18:19;;;;;;;;;;;;;;;11.28;86.81;98953.41;5091402;28;2429;-59
2021/12/10 13:20:51;;;;;;;;;;;;;;;11.23;87.40;98955.47;5092543;28;830;-58
2021/12/10 13:23:19;;;;;;;;;;;;;;;11.17;87.32;98951.66;5092168;28;1982;-58
2021/12/10 13:25:46;;;;;;;;;;;;;;;11.14;87.77;98954.50;5092414;28;818;-57
2021/12/10 13:28:13;;;;;;;;;;;;;;;11.09;87.03;98963.28;5091149;28;837;-57
2021/12/10 13:30:45;;;;;;;;;;;;;;;11.14;86.94;98973.88;5092420;28;938;-57
2021/12/10 13:33:15;;;;;;;;;;;;;;;11.11;87.73;98978.25;5092379;28;877;-57
2021/12/10 13:35:43;;;;;;;;;;;;;;;11.07;88.53;98985.06;5092228;28;894;-56
2021/12/10 13:38:10;;;;;;;;;;;;;;;10.97;89.61;98982.09;5092279;28;868;-56
2021/12/10 13:40:37;;;;;;;;;;;;;;;10.94;90.08;98968.31;5092205;28;878;-56
2021/12/10 13:43:05;;;;;;;;;;;;;;;10.88;90.63;98954.22;5092387;28;1885;-56
2021/12/10 13:45:34;;;;;;;;;;;;;;;10.83;90.85;98955.47;5092497;28;837;-55
2021/12/10 13:48:03;;;;;;;;;;;;;;;10.81;90.96;98957.88;5092234;28;947;-54
2021/12/10 13:50:35;;;;;;;;;;;;;;;10.80;90.95;98959.09;5092044;28;929;-55
2021/12/10 13:53:07;;;;;;;;;;;;;;;10.78;90.98;98956.00;5091986;28;867;-55
2021/12/10 13:55:42;;;;;;;;;;;;;;;10.77;91.09;98961.94;5091944;28;798;-55
2021/12/10 13:58:38;;;;;;;;;;;;;;;10.74;90.56;98957.25;5125006;27;912;-55